Time;durP1;ratioP1;P1;durP2;ratioP2;P2;SDS_P1;SDS_P2;PMS_P1;PMS_P2;Temp;Humidity;BMP_temperature;BMP_pressure;BME280_temperature;BME280_humidity;BME280_pressure;Samples;Min_cycle;Max_cycle;Signal;HPM_P1;HPM_P2
2021/09/20 00:04:23;;;;;;;0.20;0.10;;;19.40;99.90;;;;;;21159241;28;20222;-67
2021/09/20 00:14:26;;;;;;;0.20;0.03;;;19.40;99.90;;;;;;21158101;28;20220;-67
2021/09/20 00:24:32;;;;;;;0.20;0.00;;;19.20;99.90;;;;;;21085177;28;20278;-69
2021/09/20 00:34:36;;;;;;;0.20;0.00;;;19.20;99.90;;;;;;21080428;28;20228;-69
2021/09/20 00:44:41;;;;;;;0.20;0.10;;;19.30;99.90;;;;;;21078786;28;20249;-67
2021/09/20 00:54:45;;;;;;;0.20;0.10;;;19.50;99.90;;;;;;21111422;28;20580;-68
2021/09/20 01:04:54;;;;;;;0.20;0.10;;;19.40;99.90;;;;;;21135691;28;20230;-68
2021/09/20 01:14:58;;;;;;;0.20;0.10;;;19.10;99.90;;;;;;21152195;28;20585;-68
2021/09/20 01:25:04;;;;;;;0.40;0.30;;;19.10;99.90;;;;;;21151802;28;20261;-67
2021/09/20 01:35:08;;;;;;;0.40;0.27;;;19.30;99.90;;;;;;21152138;28;20223;-67
2021/09/20 01:45:15;;;;;;;0.53;0.27;;;19.40;99.90;;;;;;21151048;28;20274;-67
2021/09/20 01:55:19;;;;;;;0.67;0.67;;;19.40;99.90;;;;;;21150569;28;20322;-66
2021/09/20 02:05:24;;;;;;;0.20;0.00;;;19.40;99.90;;;;;;21008497;22;20229;-73
2021/09/20 02:15:27;;;;;;;0.20;0.10;;;19.30;99.90;;;;;;20898918;28;20229;-72
2021/09/20 02:25:32;;;;;;;0.20;0.10;;;19.40;99.90;;;;;;20973074;28;20224;-71
2021/09/20 02:35:36;;;;;;;0.20;0.03;;;19.30;99.90;;;;;;20996283;28;20193;-73
2021/09/20 02:45:41;;;;;;;0.20;0.00;;;19.10;99.90;;;;;;20996488;28;20197;-74
2021/09/20 02:55:45;;;;;;;0.20;0.20;;;18.70;99.90;;;;;;20995604;28;20617;-73
2021/09/20 03:05:50;;;;;;;0.20;0.10;;;18.60;99.90;;;;;;20994975;28;20304;-72
2021/09/20 03:15:54;;;;;;;0.20;0.10;;;18.50;99.90;;;;;;20994076;28;20285;-73
2021/09/20 03:25:59;;;;;;;0.30;0.30;;;18.40;99.90;;;;;;20928501;28;20280;-75
2021/09/20 03:36:03;;;;;;;0.20;0.17;;;18.30;99.90;;;;;;20891573;28;20551;-74
2021/09/20 03:46:08;;;;;;;0.20;0.10;;;18.40;99.90;;;;;;20909139;28;20217;-74
2021/09/20 03:56:12;;;;;;;0.20;0.10;;;18.10;99.90;;;;;;20908274;28;20200;-74
2021/09/20 04:06:16;;;;;;;0.20;0.10;;;18.00;99.90;;;;;;20908468;28;20297;-76
2021/09/20 04:16:20;;;;;;;0.37;0.27;;;18.00;99.90;;;;;;20907112;28;20211;-73
2021/09/20 04:26:25;;;;;;;0.27;0.17;;;18.00;99.90;;;;;;20974093;28;20220;-73
2021/09/20 04:36:28;;;;;;;0.20;0.10;;;18.00;99.90;;;;;;20987321;28;20205;-73
2021/09/20 04:46:33;;;;;;;0.20;0.10;;;18.10;99.90;;;;;;20985695;28;20216;-73
2021/09/20 04:56:37;;;;;;;2.73;0.40;;;18.20;99.90;;;;;;20985865;28;20587;-73
2021/09/20 05:06:42;;;;;;;0.30;0.23;;;18.20;99.90;;;;;;20984092;28;20228;-73
2021/09/20 05:16:46;;;;;;;0.30;0.30;;;18.30;99.90;;;;;;20984581;28;20197;-71
2021/09/20 05:26:51;;;;;;;0.20;0.10;;;18.30;99.90;;;;;;20892802;28;20217;-72
2021/09/20 05:36:54;;;;;;;0.20;0.13;;;18.10;99.90;;;;;;20881780;28;20675;-73
2021/09/20 05:46:59;;;;;;;0.20;0.13;;;18.10;99.90;;;;;;20897221;28;20232;-72
2021/09/20 05:57:03;;;;;;;0.20;0.10;;;18.20;99.90;;;;;;20875508;28;20315;-73
2021/09/20 06:07:09;;;;;;;0.20;0.10;;;18.30;99.90;;;;;;20888624;28;20248;-74
2021/09/20 06:17:12;;;;;;;0.20;0.20;;;18.50;99.90;;;;;;20895139;28;20555;-73
2021/09/20 06:27:17;;;;;;;0.20;0.03;;;18.50;99.90;;;;;;20972196;28;20217;-74
2021/09/20 06:37:21;;;;;;;0.33;0.33;;;18.70;99.90;;;;;;20979520;28;20216;-74
2021/09/20 06:47:26;;;;;;;0.70;0.60;;;18.90;99.90;;;;;;20979246;28;20308;-73
2021/09/20 06:57:30;;;;;;;0.20;0.00;;;19.00;99.90;;;;;;20978444;28;20193;-73
2021/09/20 07:07:35;;;;;;;0.43;0.43;;;19.20;99.90;;;;;;20983981;28;20239;-76
2021/09/20 07:17:39;;;;;;;0.27;0.23;;;19.40;99.90;;;;;;20990818;28;20193;-73
2021/09/20 07:27:44;;;;;;;0.23;0.23;;;19.40;99.90;;;;;;20911266;28;20708;-72
2021/09/20 07:37:51;;;;;;;0.20;0.20;;;19.30;99.90;;;;;;20889471;28;20731;-72
2021/09/20 07:47:56;;;;;;;0.23;0.20;;;19.40;99.90;;;;;;20906103;28;20613;-73
2021/09/20 07:58:00;;;;;;;0.20;0.10;;;19.30;99.90;;;;;;20905918;28;20284;-74
2021/09/20 08:08:06;;;;;;;0.20;0.10;;;19.50;99.90;;;;;;20904571;28;20239;-74
2021/09/20 08:18:10;;;;;;;0.73;0.30;;;19.90;99.90;;;;;;20906257;28;20674;-74
2021/09/20 08:28:15;;;;;;;0.50;0.40;;;20.20;99.90;;;;;;20987920;28;20234;-73
2021/09/20 08:38:19;;;;;;;0.20;0.10;;;20.80;99.90;;;;;;20986633;28;20704;-73
2021/09/20 08:48:24;;;;;;;0.20;0.10;;;21.30;99.90;;;;;;20985246;28;20320;-72
2021/09/20 08:58:28;;;;;;;0.40;0.40;;;21.60;99.90;;;;;;20965029;28;20197;-72
2021/09/20 09:08:35;;;;;;;1.07;0.70;;;22.00;99.90;;;;;;20964013;28;20236;-72
2021/09/20 09:19:01;;;;;;;0.20;0.10;;;22.30;99.90;;;;;;20978132;28;20193;-73
2021/09/20 09:29:11;;;;;;;0.52;0.45;;;22.40;99.90;;;;;;20898753;28;20267;-72
2021/09/20 09:39:25;;;;;;;0.63;0.60;;;22.80;99.90;;;;;;20898103;28;20312;-69
2021/09/20 09:49:31;;;;;;;0.32;0.13;;;23.40;99.90;;;;;;20896653;28;20225;-70
2021/09/20 09:59:34;;;;;;;43.83;0.82;;;24.00;99.90;;;;;;20879534;28;20228;-70
2021/09/20 10:09:39;;;;;;;0.68;0.55;;;24.20;99.90;;;;;;20896971;28;20311;-68
2021/09/20 10:19:43;;;;;;;0.20;0.15;;;23.90;99.90;;;;;;20910280;28;20721;-68
2021/09/20 10:29:52;;;;;;;0.80;0.55;;;23.80;99.90;;;;;;20979072;28;20220;-69
2021/09/20 10:40:00;;;;;;;0.20;0.08;;;24.50;99.90;;;;;;20982128;28;20223;-69
2021/09/20 10:50:06;;;;;;;0.43;0.10;;;25.00;99.90;;;;;;20993591;28;20258;-69
2021/09/20 11:00:22;;;;;;;0.30;0.15;;;25.00;99.90;;;;;;20993901;28;20235;-70
2021/09/20 11:10:34;;;;;;;0.60;0.60;;;25.80;99.90;;;;;;20974328;28;20217;-70
2021/09/20 11:20:39;;;;;;;0.82;0.73;;;26.20;99.90;;;;;;20971653;28;20199;-71
2021/09/20 11:30:44;;;;;;;1.98;0.90;;;26.20;99.90;;;;;;20908223;28;20231;-69
2021/09/20 11:40:48;;;;;;;0.45;0.35;;;26.80;99.90;;;;;;20908412;28;20336;-70
2021/09/20 11:50:53;;;;;;;0.88;0.38;;;26.60;99.90;;;;;;20905849;28;20593;-70
2021/09/20 12:00:57;;;;;;;0.22;0.13;;;26.50;99.90;;;;;;20905312;28;20630;-71
2021/09/20 12:11:02;;;;;;;0.38;0.15;;;27.20;99.90;;;;;;20905222;28;20232;-71
2021/09/20 12:21:08;;;;;;;0.30;0.25;;;28.10;99.90;;;;;;20927584;28;20288;-71
2021/09/20 12:31:15;;;;;;;0.20;0.20;;;28.50;99.90;;;;;;20980938;28;20336;-70
2021/09/20 12:41:19;;;;;;;0.43;0.43;;;29.20;99.90;;;;;;20977548;28;20197;-71
2021/09/20 12:51:25;;;;;;;0.55;0.43;;;29.50;99.90;;;;;;20983333;28;20331;-74
2021/09/20 13:01:30;;;;;;;2.20;0.93;;;30.30;99.90;;;;;;20983772;28;20225;-75
2021/09/20 13:11:43;;;;;;;5.05;1.13;;;28.30;99.90;;;;;;20982200;28;20278;-74
2021/09/20 13:22:00;;;;;;;0.60;0.60;;;26.60;99.90;;;;;;20952657;28;20200;-70
2021/09/20 13:32:05;;;;;;;0.60;0.45;;;25.40;99.90;;;;;;20881310;28;20225;-71
2021/09/20 13:42:08;;;;;;;2.67;0.80;;;26.90;99.90;;;;;;20898968;28;20204;-71
2021/09/20 13:52:14;;;;;;;0.47;0.45;;;26.20;99.90;;;;;;20896432;28;20221;-70
2021/09/20 14:02:18;;;;;;;0.40;0.25;;;26.50;99.90;;;;;;20863064;28;20678;-72
2021/09/20 14:12:23;;;;;;;0.82;0.73;;;24.40;99.90;;;;;;20878898;28;20216;-73
2021/09/20 14:22:27;;;;;;;0.32;0.25;;;24.60;99.90;;;;;;20929669;28;20196;-73
2021/09/20 14:32:32;;;;;;;0.30;0.20;;;26.10;99.90;;;;;;20976846;28;20553;-70
2021/09/20 14:42:36;;;;;;;5.60;0.82;;;28.20;99.90;;;;;;20994125;28;20200;-72
2021/09/20 14:52:42;;;;;;;0.80;0.30;;;27.70;99.90;;;;;;20991838;28;20307;-74
2021/09/20 15:02:46;;;;;;;0.22;0.22;;;25.20;99.90;;;;;;20992598;28;20225;-71
2021/09/20 15:12:52;;;;;;;3.58;0.40;;;24.40;99.90;;;;;;20991850;28;20577;-71
2021/09/20 15:22:58;;;;;;;1.10;0.30;;;26.40;99.90;;;;;;20933545;28;20256;-71
2021/09/20 15:33:03;;;;;;;0.65;0.40;;;25.00;99.90;;;;;;20906656;28;20304;-72
2021/09/20 15:43:07;;;;;;;0.50;0.50;;;24.20;99.90;;;;;;20906349;28;20206;-74
2021/09/20 15:53:12;;;;;;;7.65;0.38;;;23.90;99.90;;;;;;20905628;28;20225;-73
2021/09/20 16:03:17;;;;;;;0.30;0.15;;;23.80;99.90;;;;;;20905847;28;20229;-72
2021/09/20 16:13:22;;;;;;;0.70;0.50;;;23.40;99.90;;;;;;20905407;28;20245;-75
2021/09/20 16:23:26;;;;;;;7.93;0.20;;;23.10;99.90;;;;;;20947948;28;20188;-72
2021/09/20 16:33:32;;;;;;;0.73;0.45;;;23.10;99.90;;;;;;20965806;28;20323;-66
2021/09/20 16:43:36;;;;;;;0.20;0.10;;;23.30;99.90;;;;;;20984148;28;20551;-71
2021/09/20 16:53:41;;;;;;;1.50;0.77;;;23.20;99.90;;;;;;20966726;28;20655;-73
2021/09/20 17:03:44;;;;;;;4.63;1.03;;;23.00;99.90;;;;;;20983891;28;20654;-72
2021/09/20 17:13:51;;;;;;;0.30;0.10;;;22.90;99.90;;;;;;20982548;28;20627;-77
2021/09/20 17:23:54;;;;;;;0.20;0.10;;;22.70;99.90;;;;;;20933576;28;20621;-74
2021/09/20 17:33:59;;;;;;;0.20;0.10;;;21.60;99.90;;;;;;20880135;28;20237;-73
2021/09/20 17:44:06;;;;;;;0.20;0.17;;;21.00;99.90;;;;;;20898693;28;20208;-70
2021/09/20 17:54:11;;;;;;;0.40;0.30;;;17.50;99.90;;;;;;20897191;28;20225;-77
2021/09/20 18:04:16;;;;;;;0.20;0.10;;;15.30;99.90;;;;;;20897699;28;20336;-75
2021/09/20 18:14:21;;;;;;;0.30;0.30;;;16.40;99.90;;;;;;20900071;28;20617;-77
2021/09/20 18:24:25;;;;;;;0.20;0.10;;;16.50;99.90;;;;;;20950437;28;20203;-77
2021/09/20 18:34:30;;;;;;;0.20;0.10;;;16.70;99.90;;;;;;20980194;28;20224;-72
2021/09/20 18:44:34;;;;;;;0.30;0.10;;;17.10;99.90;;;;;;20980764;28;20199;-71
2021/09/20 18:54:39;;;;;;;0.20;0.10;;;17.40;99.90;;;;;;20979974;28;20216;-72
2021/09/20 19:04:43;;;;;;;0.20;0.10;;;17.40;99.90;;;;;;20988228;28;20247;-72
2021/09/20 19:14:48;;;;;;;0.87;0.43;;;17.50;99.90;;;;;;20992953;28;20229;-74
2021/09/20 19:24:52;;;;;;;0.20;0.10;;;17.60;99.90;;;;;;20937117;28;20574;-74
2021/09/20 19:34:57;;;;;;;0.57;0.40;;;17.30;99.90;;;;;;20891562;28;20228;-73
2021/09/20 19:45:01;;;;;;;0.20;0.10;;;17.30;99.90;;;;;;20907815;28;20596;-74
2021/09/20 19:55:07;;;;;;;0.20;0.10;;;17.40;99.90;;;;;;20908551;28;20221;-73
2021/09/20 20:05:11;;;;;;;0.20;0.10;;;17.50;99.90;;;;;;20907905;28;20316;-72
2021/09/20 20:15:19;;;;;;;0.20;0.10;;;17.50;99.90;;;;;;20905721;28;20320;-72
2021/09/20 20:25:22;;;;;;;0.20;0.10;;;17.80;99.90;;;;;;20947304;28;20189;-73
2021/09/20 20:35:28;;;;;;;0.20;0.03;;;17.60;99.90;;;;;;20988024;28;20715;-73
2021/09/20 20:45:31;;;;;;;0.20;0.00;;;17.20;99.90;;;;;;20987445;28;20509;-73
2021/09/20 20:55:36;;;;;;;0.97;0.30;;;17.00;99.90;;;;;;20968306;28;20247;-73
2021/09/20 21:05:40;;;;;;;0.20;0.10;;;17.20;99.90;;;;;;20985187;28;20768;-71
2021/09/20 21:15:45;;;;;;;1.30;0.37;;;16.90;99.90;;;;;;20984623;28;20224;-72
2021/09/20 21:25:48;;;;;;;0.20;0.07;;;16.70;99.90;;;;;;20920029;28;20553;-72
2021/09/20 21:35:54;;;;;;;0.20;0.10;;;16.50;99.90;;;;;;20900318;28;20308;-72
2021/09/20 21:45:58;;;;;;;0.20;0.00;;;16.30;99.90;;;;;;20900104;28;20189;-69
2021/09/20 21:56:03;;;;;;;0.70;0.60;;;16.40;99.90;;;;;;20900071;28;20233;-69
2021/09/20 22:06:07;;;;;;;0.30;0.20;;;16.20;99.90;;;;;;20899836;28;20641;-72
2021/09/20 22:16:12;;;;;;;1.17;0.20;;;16.40;99.90;;;;;;20899399;28;20312;-72
2021/09/20 22:26:16;;;;;;;0.20;0.00;;;16.50;99.90;;;;;;20966204;28;20201;-73
2021/09/20 22:36:21;;;;;;;0.20;0.10;;;16.50;99.90;;;;;;20985904;28;20266;-73
2021/09/20 22:46:26;;;;;;;0.20;0.10;;;16.50;99.90;;;;;;20996745;28;20192;-71
2021/09/20 22:56:33;;;;;;;0.20;0.00;;;16.40;99.90;;;;;;20996096;28;20709;-71
2021/09/20 23:06:37;;;;;;;0.23;0.03;;;16.50;99.90;;;;;;20995364;28;20303;-71
2021/09/20 23:16:42;;;;;;;0.20;0.20;;;16.40;99.90;;;;;;20994801;28;20248;-71
2021/09/20 23:26:46;;;;;;;0.30;0.30;;;16.30;99.90;;;;;;20922973;28;20610;-71
2021/09/20 23:36:51;;;;;;;0.20;0.10;;;16.20;99.90;;;;;;20910477;28;20256;-72
2021/09/20 23:46:54;;;;;;;0.20;0.00;;;16.10;99.90;;;;;;20909091;28;20277;-72
2021/09/20 23:56:59;;;;;;;0.20;0.10;;;16.10;99.90;;;;;;20909055;28;20216;-72
